sensor_id;sensor_type;location;lat;lon;timestamp;P1;durP1;ratioP1;P2;durP2;ratioP2
25581;SDS011;13462;50.764;4.332;2023-06-26T00:00:00;6.05;;;5.30;;
25581;SDS011;13462;50.764;4.332;2023-06-26T00:02:29;6.47;;;5.10;;
25581;SDS011;13462;50.764;4.332;2023-06-26T00:04:57;6.43;;;4.63;;
25581;SDS011;13462;50.764;4.332;2023-06-26T00:07:23;8.25;;;5.05;;
25581;SDS011;13462;50.764;4.332;2023-06-26T00:09:48;6.00;;;5.38;;
25581;SDS011;13462;50.764;4.332;2023-06-26T00:12:14;7.05;;;5.90;;
25581;SDS011;13462;50.764;4.332;2023-06-26T00:14:40;9.20;;;5.50;;
25581;SDS011;13462;50.764;4.332;2023-06-26T00:17:05;8.70;;;6.18;;
25581;SDS011;13462;50.764;4.332;2023-06-26T00:19:31;8.30;;;5.82;;
25581;SDS011;13462;50.764;4.332;2023-06-26T00:21:56;12.15;;;6.30;;
25581;SDS011;13462;50.764;4.332;2023-06-26T00:24:22;7.40;;;5.50;;
25581;SDS011;13462;50.764;4.332;2023-06-26T00:26:48;8.98;;;5.47;;
25581;SDS011;13462;50.764;4.332;2023-06-26T00:29:14;7.22;;;5.25;;
25581;SDS011;13462;50.764;4.332;2023-06-26T00:31:40;8.52;;;5.22;;
25581;SDS011;13462;50.764;4.332;2023-06-26T00:34:06;12.13;;;5.50;;
25581;SDS011;13462;50.764;4.332;2023-06-26T00:36:31;8.10;;;5.03;;
25581;SDS011;13462;50.764;4.332;2023-06-26T00:38:57;10.77;;;5.57;;
25581;SDS011;13462;50.764;4.332;2023-06-26T00:41:23;7.35;;;5.68;;
25581;SDS011;13462;50.764;4.332;2023-06-26T00:43:49;8.38;;;5.18;;
25581;SDS011;13462;50.764;4.332;2023-06-26T00:46:15;9.70;;;5.57;;
25581;SDS011;13462;50.764;4.332;2023-06-26T00:48:44;8.77;;;5.43;;
25581;SDS011;13462;50.764;4.332;2023-06-26T00:51:12;7.43;;;5.43;;
25581;SDS011;13462;50.764;4.332;2023-06-26T00:53:38;8.40;;;4.95;;
25581;SDS011;13462;50.764;4.332;2023-06-26T00:56:05;6.97;;;5.28;;
25581;SDS011;13462;50.764;4.332;2023-06-26T00:58:31;10.15;;;5.75;;
25581;SDS011;13462;50.764;4.332;2023-06-26T01:00:57;16.52;;;5.32;;
25581;SDS011;13462;50.764;4.332;2023-06-26T01:03:23;8.43;;;5.43;;
25581;SDS011;13462;50.764;4.332;2023-06-26T01:05:50;6.07;;;4.93;;
25581;SDS011;13462;50.764;4.332;2023-06-26T01:08:17;7.10;;;5.32;;
25581;SDS011;13462;50.764;4.332;2023-06-26T01:10:44;9.65;;;5.38;;
25581;SDS011;13462;50.764;4.332;2023-06-26T01:13:11;10.27;;;5.68;;
25581;SDS011;13462;50.764;4.332;2023-06-26T01:15:37;5.95;;;4.57;;
25581;SDS011;13462;50.764;4.332;2023-06-26T01:18:03;6.07;;;5.20;;
25581;SDS011;13462;50.764;4.332;2023-06-26T01:20:34;6.38;;;4.85;;
25581;SDS011;13462;50.764;4.332;2023-06-26T01:25:52;8.18;;;5.35;;
25581;SDS011;13462;50.764;4.332;2023-06-26T01:28:26;10.43;;;5.28;;
25581;SDS011;13462;50.764;4.332;2023-06-26T01:30:53;12.40;;;5.30;;
25581;SDS011;13462;50.764;4.332;2023-06-26T01:33:19;10.82;;;5.63;;
25581;SDS011;13462;50.764;4.332;2023-06-26T01:35:45;10.35;;;5.78;;
25581;SDS011;13462;50.764;4.332;2023-06-26T01:38:19;8.00;;;5.05;;
25581;SDS011;13462;50.764;4.332;2023-06-26T01:40:46;8.45;;;5.15;;
25581;SDS011;13462;50.764;4.332;2023-06-26T01:46:06;10.30;;;5.05;;
25581;SDS011;13462;50.764;4.332;2023-06-26T01:48:42;7.85;;;5.80;;
25581;SDS011;13462;50.764;4.332;2023-06-26T01:51:17;12.63;;;6.05;;
25581;SDS011;13462;50.764;4.332;2023-06-26T01:53:47;10.65;;;5.68;;
25581;SDS011;13462;50.764;4.332;2023-06-26T01:58:45;11.73;;;5.68;;
25581;SDS011;13462;50.764;4.332;2023-06-26T02:01:15;8.98;;;5.13;;
25581;SDS011;13462;50.764;4.332;2023-06-26T02:03:41;11.48;;;5.47;;
25581;SDS011;13462;50.764;4.332;2023-06-26T02:06:07;7.82;;;5.40;;
25581;SDS011;13462;50.764;4.332;2023-06-26T02:08:32;7.88;;;5.70;;
25581;SDS011;13462;50.764;4.332;2023-06-26T02:10:58;12.43;;;5.70;;
25581;SDS011;13462;50.764;4.332;2023-06-26T02:13:23;10.65;;;5.72;;
25581;SDS011;13462;50.764;4.332;2023-06-26T02:15:49;11.48;;;5.93;;
25581;SDS011;13462;50.764;4.332;2023-06-26T02:18:15;10.25;;;5.78;;
25581;SDS011;13462;50.764;4.332;2023-06-26T02:20:40;11.75;;;6.20;;
25581;SDS011;13462;50.764;4.332;2023-06-26T02:23:06;11.85;;;6.40;;
25581;SDS011;13462;50.764;4.332;2023-06-26T02:25:31;12.88;;;6.72;;
25581;SDS011;13462;50.764;4.332;2023-06-26T02:27:57;10.63;;;6.30;;
25581;SDS011;13462;50.764;4.332;2023-06-26T02:30:23;11.07;;;6.05;;
25581;SDS011;13462;50.764;4.332;2023-06-26T02:32:48;15.15;;;6.70;;
25581;SDS011;13462;50.764;4.332;2023-06-26T02:35:14;11.95;;;6.28;;
25581;SDS011;13462;50.764;4.332;2023-06-26T02:37:39;13.52;;;7.30;;
25581;SDS011;13462;50.764;4.332;2023-06-26T02:40:05;9.80;;;5.88;;
25581;SDS011;13462;50.764;4.332;2023-06-26T02:42:32;10.85;;;5.65;;
25581;SDS011;13462;50.764;4.332;2023-06-26T02:44:59;11.68;;;6.07;;
25581;SDS011;13462;50.764;4.332;2023-06-26T02:47:25;8.20;;;5.80;;
25581;SDS011;13462;50.764;4.332;2023-06-26T02:49:50;9.63;;;6.90;;
25581;SDS011;13462;50.764;4.332;2023-06-26T02:52:16;14.10;;;6.22;;
25581;SDS011;13462;50.764;4.332;2023-06-26T02:54:41;12.07;;;6.30;;
25581;SDS011;13462;50.764;4.332;2023-06-26T02:57:07;13.43;;;6.90;;
25581;SDS011;13462;50.764;4.332;2023-06-26T02:59:33;9.32;;;5.80;;
25581;SDS011;13462;50.764;4.332;2023-06-26T03:01:59;12.68;;;6.32;;
25581;SDS011;13462;50.764;4.332;2023-06-26T03:04:24;14.63;;;6.80;;
25581;SDS011;13462;50.764;4.332;2023-06-26T03:06:50;14.55;;;7.47;;
25581;SDS011;13462;50.764;4.332;2023-06-26T03:09:15;14.45;;;6.70;;
25581;SDS011;13462;50.764;4.332;2023-06-26T03:11:42;12.93;;;6.65;;
25581;SDS011;13462;50.764;4.332;2023-06-26T03:14:07;16.65;;;7.68;;
25581;SDS011;13462;50.764;4.332;2023-06-26T03:16:33;11.80;;;6.88;;
25581;SDS011;13462;50.764;4.332;2023-06-26T03:18:58;15.48;;;7.50;;
25581;SDS011;13462;50.764;4.332;2023-06-26T03:21:24;19.08;;;7.18;;
25581;SDS011;13462;50.764;4.332;2023-06-26T03:23:49;15.35;;;7.25;;
25581;SDS011;13462;50.764;4.332;2023-06-26T03:26:15;14.30;;;7.30;;
25581;SDS011;13462;50.764;4.332;2023-06-26T03:28:40;13.80;;;7.13;;
25581;SDS011;13462;50.764;4.332;2023-06-26T03:31:07;16.05;;;7.30;;
25581;SDS011;13462;50.764;4.332;2023-06-26T03:33:32;19.40;;;7.65;;
25581;SDS011;13462;50.764;4.332;2023-06-26T03:35:58;18.40;;;7.40;;
25581;SDS011;13462;50.764;4.332;2023-06-26T03:38:24;21.02;;;7.70;;
25581;SDS011;13462;50.764;4.332;2023-06-26T03:40:50;18.70;;;7.20;;
25581;SDS011;13462;50.764;4.332;2023-06-26T03:43:17;20.40;;;7.55;;
25581;SDS011;13462;50.764;4.332;2023-06-26T03:45:42;18.83;;;7.13;;
25581;SDS011;13462;50.764;4.332;2023-06-26T03:48:08;17.23;;;7.28;;
25581;SDS011;13462;50.764;4.332;2023-06-26T03:50:33;20.58;;;7.65;;
25581;SDS011;13462;50.764;4.332;2023-06-26T03:52:59;17.25;;;7.13;;
25581;SDS011;13462;50.764;4.332;2023-06-26T03:55:25;20.75;;;8.43;;
25581;SDS011;13462;50.764;4.332;2023-06-26T03:57:50;19.60;;;7.85;;
25581;SDS011;13462;50.764;4.332;2023-06-26T04:00:16;22.58;;;8.02;;
25581;SDS011;13462;50.764;4.332;2023-06-26T04:02:42;19.23;;;7.45;;
25581;SDS011;13462;50.764;4.332;2023-06-26T04:05:07;17.48;;;6.70;;
25581;SDS011;13462;50.764;4.332;2023-06-26T04:07:33;19.92;;;7.90;;
25581;SDS011;13462;50.764;4.332;2023-06-26T04:10:00;16.95;;;7.90;;
25581;SDS011;13462;50.764;4.332;2023-06-26T04:12:26;18.75;;;7.68;;
25581;SDS011;13462;50.764;4.332;2023-06-26T04:14:52;18.90;;;8.10;;
25581;SDS011;13462;50.764;4.332;2023-06-26T04:17:18;15.85;;;7.70;;
25581;SDS011;13462;50.764;4.332;2023-06-26T04:19:43;24.95;;;7.82;;
25581;SDS011;13462;50.764;4.332;2023-06-26T04:22:09;22.00;;;7.10;;
25581;SDS011;13462;50.764;4.332;2023-06-26T04:24:34;21.30;;;7.55;;
25581;SDS011;13462;50.764;4.332;2023-06-26T04:27:00;23.15;;;7.63;;
25581;SDS011;13462;50.764;4.332;2023-06-26T04:29:26;17.02;;;7.63;;
25581;SDS011;13462;50.764;4.332;2023-06-26T04:31:52;30.10;;;8.48;;
25581;SDS011;13462;50.764;4.332;2023-06-26T04:34:22;20.17;;;7.47;;
25581;SDS011;13462;50.764;4.332;2023-06-26T04:36:49;23.65;;;6.75;;
25581;SDS011;13462;50.764;4.332;2023-06-26T04:39:15;20.70;;;7.43;;
25581;SDS011;13462;50.764;4.332;2023-06-26T04:41:41;17.15;;;6.82;;
25581;SDS011;13462;50.764;4.332;2023-06-26T04:44:07;21.67;;;7.05;;
25581;SDS011;13462;50.764;4.332;2023-06-26T04:46:32;19.08;;;7.10;;
25581;SDS011;13462;50.764;4.332;2023-06-26T04:48:58;27.90;;;7.20;;
25581;SDS011;13462;50.764;4.332;2023-06-26T04:51:24;23.40;;;7.70;;
25581;SDS011;13462;50.764;4.332;2023-06-26T04:53:52;20.85;;;7.38;;
25581;SDS011;13462;50.764;4.332;2023-06-26T04:56:17;16.02;;;6.82;;
25581;SDS011;13462;50.764;4.332;2023-06-26T04:58:43;17.40;;;7.50;;
25581;SDS011;13462;50.764;4.332;2023-06-26T05:01:08;19.50;;;7.00;;
25581;SDS011;13462;50.764;4.332;2023-06-26T05:03:35;23.60;;;7.05;;
25581;SDS011;13462;50.764;4.332;2023-06-26T05:06:01;16.45;;;7.18;;
25581;SDS011;13462;50.764;4.332;2023-06-26T05:08:27;23.88;;;6.68;;
25581;SDS011;13462;50.764;4.332;2023-06-26T05:10:53;18.63;;;6.63;;
25581;SDS011;13462;50.764;4.332;2023-06-26T05:13:22;26.58;;;7.47;;
25581;SDS011;13462;50.764;4.332;2023-06-26T05:15:48;20.80;;;6.30;;
25581;SDS011;13462;50.764;4.332;2023-06-26T05:18:14;20.73;;;6.90;;
25581;SDS011;13462;50.764;4.332;2023-06-26T05:20:40;17.80;;;6.25;;
25581;SDS011;13462;50.764;4.332;2023-06-26T05:23:05;16.67;;;6.03;;
25581;SDS011;13462;50.764;4.332;2023-06-26T05:25:32;14.23;;;5.90;;
25581;SDS011;13462;50.764;4.332;2023-06-26T05:27:59;19.63;;;6.15;;
25581;SDS011;13462;50.764;4.332;2023-06-26T05:30:25;17.08;;;6.20;;
25581;SDS011;13462;50.764;4.332;2023-06-26T05:32:52;17.80;;;6.55;;
25581;SDS011;13462;50.764;4.332;2023-06-26T05:35:19;19.67;;;5.75;;
25581;SDS011;13462;50.764;4.332;2023-06-26T05:37:48;18.55;;;5.38;;
25581;SDS011;13462;50.764;4.332;2023-06-26T05:40:15;15.10;;;5.40;;
25581;SDS011;13462;50.764;4.332;2023-06-26T05:42:44;13.13;;;4.85;;
25581;SDS011;13462;50.764;4.332;2023-06-26T05:45:09;19.33;;;5.82;;
25581;SDS011;13462;50.764;4.332;2023-06-26T05:47:36;17.33;;;4.90;;
25581;SDS011;13462;50.764;4.332;2023-06-26T05:50:02;14.88;;;4.85;;
25581;SDS011;13462;50.764;4.332;2023-06-26T05:52:28;18.13;;;4.75;;
25581;SDS011;13462;50.764;4.332;2023-06-26T05:54:55;15.52;;;4.80;;
25581;SDS011;13462;50.764;4.332;2023-06-26T05:57:23;12.13;;;4.30;;
25581;SDS011;13462;50.764;4.332;2023-06-26T05:59:49;16.92;;;4.05;;
25581;SDS011;13462;50.764;4.332;2023-06-26T06:02:16;14.20;;;3.75;;
25581;SDS011;13462;50.764;4.332;2023-06-26T06:04:41;14.00;;;4.40;;
25581;SDS011;13462;50.764;4.332;2023-06-26T06:07:07;11.07;;;3.95;;
25581;SDS011;13462;50.764;4.332;2023-06-26T06:09:33;10.35;;;3.88;;
25581;SDS011;13462;50.764;4.332;2023-06-26T06:11:58;9.07;;;3.45;;
25581;SDS011;13462;50.764;4.332;2023-06-26T06:14:26;11.35;;;4.10;;
25581;SDS011;13462;50.764;4.332;2023-06-26T06:16:52;9.85;;;3.17;;
25581;SDS011;13462;50.764;4.332;2023-06-26T06:19:17;16.63;;;3.58;;
25581;SDS011;13462;50.764;4.332;2023-06-26T06:21:43;11.95;;;3.38;;
25581;SDS011;13462;50.764;4.332;2023-06-26T06:24:08;14.95;;;4.10;;
25581;SDS011;13462;50.764;4.332;2023-06-26T06:26:34;9.00;;;3.22;;
25581;SDS011;13462;50.764;4.332;2023-06-26T06:29:00;12.48;;;3.70;;
25581;SDS011;13462;50.764;4.332;2023-06-26T06:31:26;11.32;;;3.30;;
25581;SDS011;13462;50.764;4.332;2023-06-26T06:33:53;10.88;;;3.25;;
25581;SDS011;13462;50.764;4.332;2023-06-26T06:36:19;6.75;;;3.00;;
25581;SDS011;13462;50.764;4.332;2023-06-26T06:38:45;8.00;;;3.13;;
25581;SDS011;13462;50.764;4.332;2023-06-26T06:41:10;10.82;;;3.08;;
25581;SDS011;13462;50.764;4.332;2023-06-26T06:43:37;6.03;;;2.58;;
25581;SDS011;13462;50.764;4.332;2023-06-26T06:46:03;8.48;;;2.78;;
25581;SDS011;13462;50.764;4.332;2023-06-26T06:48:29;9.68;;;2.75;;
25581;SDS011;13462;50.764;4.332;2023-06-26T06:50:55;9.95;;;2.80;;
25581;SDS011;13462;50.764;4.332;2023-06-26T06:53:21;9.82;;;2.67;;
25581;SDS011;13462;50.764;4.332;2023-06-26T06:55:47;9.32;;;2.78;;
25581;SDS011;13462;50.764;4.332;2023-06-26T06:58:16;6.38;;;2.38;;
25581;SDS011;13462;50.764;4.332;2023-06-26T07:00:44;6.60;;;2.60;;
25581;SDS011;13462;50.764;4.332;2023-06-26T07:03:09;7.80;;;2.60;;
25581;SDS011;13462;50.764;4.332;2023-06-26T07:05:35;11.48;;;2.78;;
25581;SDS011;13462;50.764;4.332;2023-06-26T07:08:01;6.35;;;2.40;;
25581;SDS011;13462;50.764;4.332;2023-06-26T07:10:27;6.65;;;2.30;;
25581;SDS011;13462;50.764;4.332;2023-06-26T07:12:53;8.77;;;2.80;;
25581;SDS011;13462;50.764;4.332;2023-06-26T07:15:19;10.15;;;2.60;;
25581;SDS011;13462;50.764;4.332;2023-06-26T07:17:45;4.57;;;2.47;;
25581;SDS011;13462;50.764;4.332;2023-06-26T07:20:10;8.05;;;3.03;;
25581;SDS011;13462;50.764;4.332;2023-06-26T07:22:40;8.13;;;2.30;;
25581;SDS011;13462;50.764;4.332;2023-06-26T07:25:06;5.43;;;2.38;;
25581;SDS011;13462;50.764;4.332;2023-06-26T07:27:34;8.63;;;2.97;;
25581;SDS011;13462;50.764;4.332;2023-06-26T07:30:00;9.63;;;3.33;;
25581;SDS011;13462;50.764;4.332;2023-06-26T07:32:26;7.82;;;2.63;;
25581;SDS011;13462;50.764;4.332;2023-06-26T07:34:51;8.45;;;2.50;;
25581;SDS011;13462;50.764;4.332;2023-06-26T07:37:17;7.47;;;2.53;;
25581;SDS011;13462;50.764;4.332;2023-06-26T07:39:46;6.10;;;2.45;;
25581;SDS011;13462;50.764;4.332;2023-06-26T07:42:12;10.05;;;2.50;;
25581;SDS011;13462;50.764;4.332;2023-06-26T07:44:38;6.18;;;2.22;;
25581;SDS011;13462;50.764;4.332;2023-06-26T07:47:03;5.43;;;2.50;;
25581;SDS011;13462;50.764;4.332;2023-06-26T07:49:32;12.20;;;2.30;;
25581;SDS011;13462;50.764;4.332;2023-06-26T07:51:58;11.60;;;2.83;;
25581;SDS011;13462;50.764;4.332;2023-06-26T07:54:23;6.28;;;2.58;;
25581;SDS011;13462;50.764;4.332;2023-06-26T07:59:21;10.77;;;2.65;;
25581;SDS011;13462;50.764;4.332;2023-06-26T08:01:48;5.45;;;2.30;;
25581;SDS011;13462;50.764;4.332;2023-06-26T08:04:15;9.07;;;3.15;;
25581;SDS011;13462;50.764;4.332;2023-06-26T08:06:40;5.18;;;2.15;;
25581;SDS011;13462;50.764;4.332;2023-06-26T08:09:06;6.38;;;2.22;;
25581;SDS011;13462;50.764;4.332;2023-06-26T08:11:35;4.72;;;2.17;;
25581;SDS011;13462;50.764;4.332;2023-06-26T08:14:00;2.38;;;2.00;;
25581;SDS011;13462;50.764;4.332;2023-06-26T08:16:26;9.85;;;3.25;;
25581;SDS011;13462;50.764;4.332;2023-06-26T08:18:51;6.88;;;2.33;;
25581;SDS011;13462;50.764;4.332;2023-06-26T08:21:17;3.70;;;2.17;;
25581;SDS011;13462;50.764;4.332;2023-06-26T08:23:43;6.28;;;2.35;;
25581;SDS011;13462;50.764;4.332;2023-06-26T08:26:08;8.35;;;2.60;;
25581;SDS011;13462;50.764;4.332;2023-06-26T08:28:34;5.78;;;2.45;;
25581;SDS011;13462;50.764;4.332;2023-06-26T08:30:59;7.57;;;2.72;;
25581;SDS011;13462;50.764;4.332;2023-06-26T08:33:25;8.32;;;2.53;;
25581;SDS011;13462;50.764;4.332;2023-06-26T08:35:51;3.67;;;2.20;;
25581;SDS011;13462;50.764;4.332;2023-06-26T08:38:16;4.82;;;2.72;;
25581;SDS011;13462;50.764;4.332;2023-06-26T08:40:43;5.32;;;2.30;;
25581;SDS011;13462;50.764;4.332;2023-06-26T08:43:09;6.05;;;2.30;;
25581;SDS011;13462;50.764;4.332;2023-06-26T08:45:35;9.10;;;2.40;;
25581;SDS011;13462;50.764;4.332;2023-06-26T08:48:00;9.02;;;2.20;;
25581;SDS011;13462;50.764;4.332;2023-06-26T08:50:30;6.32;;;2.15;;
25581;SDS011;13462;50.764;4.332;2023-06-26T08:55:27;5.30;;;2.22;;
25581;SDS011;13462;50.764;4.332;2023-06-26T08:57:53;6.82;;;2.22;;
25581;SDS011;13462;50.764;4.332;2023-06-26T09:00:19;5.43;;;2.03;;
25581;SDS011;13462;50.764;4.332;2023-06-26T09:02:45;4.80;;;2.10;;
25581;SDS011;13462;50.764;4.332;2023-06-26T09:05:11;6.80;;;2.28;;
25581;SDS011;13462;50.764;4.332;2023-06-26T09:07:37;5.63;;;2.20;;
25581;SDS011;13462;50.764;4.332;2023-06-26T09:10:02;5.63;;;2.47;;
25581;SDS011;13462;50.764;4.332;2023-06-26T09:12:28;5.40;;;2.42;;
25581;SDS011;13462;50.764;4.332;2023-06-26T09:14:55;4.78;;;2.50;;
25581;SDS011;13462;50.764;4.332;2023-06-26T09:17:25;6.68;;;2.50;;
25581;SDS011;13462;50.764;4.332;2023-06-26T09:19:55;6.00;;;2.30;;
25581;SDS011;13462;50.764;4.332;2023-06-26T09:22:21;5.57;;;2.35;;
25581;SDS011;13462;50.764;4.332;2023-06-26T09:24:48;3.88;;;2.17;;
25581;SDS011;13462;50.764;4.332;2023-06-26T09:27:13;6.70;;;2.33;;
25581;SDS011;13462;50.764;4.332;2023-06-26T09:29:40;6.93;;;2.90;;
25581;SDS011;13462;50.764;4.332;2023-06-26T09:32:07;6.18;;;2.70;;
25581;SDS011;13462;50.764;4.332;2023-06-26T09:34:34;6.78;;;2.42;;
25581;SDS011;13462;50.764;4.332;2023-06-26T09:37:00;5.43;;;2.30;;
25581;SDS011;13462;50.764;4.332;2023-06-26T09:39:31;5.35;;;2.20;;
25581;SDS011;13462;50.764;4.332;2023-06-26T09:41:57;4.75;;;2.75;;
25581;SDS011;13462;50.764;4.332;2023-06-26T09:44:24;4.82;;;2.08;;
25581;SDS011;13462;50.764;4.332;2023-06-26T09:46:49;5.43;;;2.28;;
25581;SDS011;13462;50.764;4.332;2023-06-26T09:49:15;5.97;;;2.33;;
25581;SDS011;13462;50.764;4.332;2023-06-26T09:51:41;7.35;;;2.25;;
25581;SDS011;13462;50.764;4.332;2023-06-26T09:54:07;5.10;;;2.35;;
25581;SDS011;13462;50.764;4.332;2023-06-26T09:56:34;4.50;;;2.47;;
25581;SDS011;13462;50.764;4.332;2023-06-26T09:59:01;4.15;;;2.60;;
25581;SDS011;13462;50.764;4.332;2023-06-26T10:01:28;4.90;;;2.30;;
25581;SDS011;13462;50.764;4.332;2023-06-26T10:03:54;4.93;;;2.40;;
25581;SDS011;13462;50.764;4.332;2023-06-26T10:06:24;10.85;;;2.65;;
25581;SDS011;13462;50.764;4.332;2023-06-26T10:08:54;6.00;;;2.25;;
25581;SDS011;13462;50.764;4.332;2023-06-26T10:11:21;7.40;;;2.10;;
25581;SDS011;13462;50.764;4.332;2023-06-26T10:13:51;4.47;;;1.90;;
25581;SDS011;13462;50.764;4.332;2023-06-26T10:16:18;7.05;;;2.40;;
25581;SDS011;13462;50.764;4.332;2023-06-26T10:18:50;7.07;;;2.30;;
25581;SDS011;13462;50.764;4.332;2023-06-26T10:21:20;5.88;;;2.30;;
25581;SDS011;13462;50.764;4.332;2023-06-26T10:23:48;6.53;;;2.03;;
25581;SDS011;13462;50.764;4.332;2023-06-26T10:26:17;4.35;;;2.00;;
25581;SDS011;13462;50.764;4.332;2023-06-26T10:28:46;5.00;;;2.20;;
25581;SDS011;13462;50.764;4.332;2023-06-26T10:31:14;4.90;;;2.22;;
25581;SDS011;13462;50.764;4.332;2023-06-26T10:33:41;3.95;;;2.15;;
25581;SDS011;13462;50.764;4.332;2023-06-26T10:36:13;3.72;;;1.83;;
25581;SDS011;13462;50.764;4.332;2023-06-26T10:41:36;6.13;;;2.17;;
25581;SDS011;13462;50.764;4.332;2023-06-26T10:44:10;3.97;;;1.67;;
25581;SDS011;13462;50.764;4.332;2023-06-26T10:46:53;4.65;;;2.17;;
25581;SDS011;13462;50.764;4.332;2023-06-26T10:49:21;3.50;;;2.10;;
25581;SDS011;13462;50.764;4.332;2023-06-26T10:51:50;9.25;;;2.55;;
25581;SDS011;13462;50.764;4.332;2023-06-26T10:54:17;9.63;;;2.28;;
25581;SDS011;13462;50.764;4.332;2023-06-26T10:56:45;9.02;;;2.47;;
25581;SDS011;13462;50.764;4.332;2023-06-26T10:59:16;4.97;;;2.17;;
25581;SDS011;13462;50.764;4.332;2023-06-26T11:01:44;4.90;;;2.13;;
25581;SDS011;13462;50.764;4.332;2023-06-26T11:04:12;7.45;;;2.33;;
25581;SDS011;13462;50.764;4.332;2023-06-26T11:06:40;6.28;;;2.22;;
25581;SDS011;13462;50.764;4.332;2023-06-26T11:09:07;7.68;;;2.38;;
25581;SDS011;13462;50.764;4.332;2023-06-26T11:16:47;4.50;;;1.63;;
25581;SDS011;13462;50.764;4.332;2023-06-26T11:19:14;5.88;;;2.35;;
25581;SDS011;13462;50.764;4.332;2023-06-26T11:21:41;5.45;;;2.05;;
25581;SDS011;13462;50.764;4.332;2023-06-26T11:24:07;3.95;;;1.90;;
25581;SDS011;13462;50.764;4.332;2023-06-26T11:29:09;4.90;;;2.05;;
25581;SDS011;13462;50.764;4.332;2023-06-26T11:31:39;3.63;;;1.83;;
25581;SDS011;13462;50.764;4.332;2023-06-26T11:34:06;4.50;;;1.90;;
25581;SDS011;13462;50.764;4.332;2023-06-26T11:36:34;5.72;;;2.10;;
25581;SDS011;13462;50.764;4.332;2023-06-26T11:39:03;5.07;;;2.30;;
25581;SDS011;13462;50.764;4.332;2023-06-26T11:41:34;5.97;;;2.00;;
25581;SDS011;13462;50.764;4.332;2023-06-26T11:44:01;3.88;;;2.00;;
25581;SDS011;13462;50.764;4.332;2023-06-26T11:46:31;4.53;;;1.90;;
25581;SDS011;13462;50.764;4.332;2023-06-26T11:48:58;4.45;;;1.90;;
25581;SDS011;13462;50.764;4.332;2023-06-26T11:51:26;3.58;;;1.85;;
25581;SDS011;13462;50.764;4.332;2023-06-26T11:53:53;4.13;;;1.73;;
25581;SDS011;13462;50.764;4.332;2023-06-26T11:56:19;3.30;;;1.88;;
25581;SDS011;13462;50.764;4.332;2023-06-26T12:01:33;4.20;;;2.10;;
25581;SDS011;13462;50.764;4.332;2023-06-26T12:04:01;2.72;;;1.73;;
25581;SDS011;13462;50.764;4.332;2023-06-26T12:06:29;6.18;;;2.10;;
25581;SDS011;13462;50.764;4.332;2023-06-26T12:08:56;4.75;;;2.03;;
25581;SDS011;13462;50.764;4.332;2023-06-26T12:11:24;6.07;;;2.55;;
25581;SDS011;13462;50.764;4.332;2023-06-26T12:13:50;3.13;;;1.88;;
25581;SDS011;13462;50.764;4.332;2023-06-26T12:16:16;6.55;;;1.90;;
25581;SDS011;13462;50.764;4.332;2023-06-26T12:18:42;3.63;;;1.90;;
25581;SDS011;13462;50.764;4.332;2023-06-26T12:21:08;5.72;;;2.25;;
25581;SDS011;13462;50.764;4.332;2023-06-26T12:23:38;7.53;;;1.95;;
25581;SDS011;13462;50.764;4.332;2023-06-26T12:26:19;3.42;;;2.00;;
25581;SDS011;13462;50.764;4.332;2023-06-26T12:28:46;6.25;;;2.17;;
25581;SDS011;13462;50.764;4.332;2023-06-26T12:31:12;3.72;;;1.90;;
25581;SDS011;13462;50.764;4.332;2023-06-26T12:33:44;7.03;;;1.95;;
25581;SDS011;13462;50.764;4.332;2023-06-26T12:36:11;3.78;;;2.10;;
25581;SDS011;13462;50.764;4.332;2023-06-26T12:38:37;6.25;;;2.20;;
25581;SDS011;13462;50.764;4.332;2023-06-26T12:41:03;4.97;;;2.50;;
25581;SDS011;13462;50.764;4.332;2023-06-26T12:43:28;4.53;;;1.90;;
25581;SDS011;13462;50.764;4.332;2023-06-26T12:45:57;4.78;;;2.33;;
25581;SDS011;13462;50.764;4.332;2023-06-26T12:48:42;7.95;;;2.13;;
25581;SDS011;13462;50.764;4.332;2023-06-26T12:51:11;4.75;;;2.08;;
25581;SDS011;13462;50.764;4.332;2023-06-26T12:53:37;3.65;;;2.03;;
25581;SDS011;13462;50.764;4.332;2023-06-26T12:56:04;6.50;;;2.03;;
25581;SDS011;13462;50.764;4.332;2023-06-26T12:58:34;5.85;;;1.83;;
25581;SDS011;13462;50.764;4.332;2023-06-26T13:01:04;4.70;;;2.10;;
25581;SDS011;13462;50.764;4.332;2023-06-26T13:03:32;3.92;;;1.80;;
25581;SDS011;13462;50.764;4.332;2023-06-26T13:05:58;4.60;;;2.67;;
25581;SDS011;13462;50.764;4.332;2023-06-26T13:08:23;4.10;;;2.47;;
25581;SDS011;13462;50.764;4.332;2023-06-26T13:10:49;6.43;;;2.13;;
25581;SDS011;13462;50.764;4.332;2023-06-26T13:13:15;6.13;;;2.35;;
25581;SDS011;13462;50.764;4.332;2023-06-26T13:15:40;6.63;;;2.25;;
25581;SDS011;13462;50.764;4.332;2023-06-26T13:18:06;6.15;;;2.13;;
25581;SDS011;13462;50.764;4.332;2023-06-26T13:20:31;6.78;;;2.28;;
25581;SDS011;13462;50.764;4.332;2023-06-26T13:22:57;5.32;;;2.30;;
25581;SDS011;13462;50.764;4.332;2023-06-26T13:25:22;4.40;;;2.38;;
25581;SDS011;13462;50.764;4.332;2023-06-26T13:27:48;10.18;;;2.45;;
25581;SDS011;13462;50.764;4.332;2023-06-26T13:30:14;6.57;;;2.13;;
25581;SDS011;13462;50.764;4.332;2023-06-26T13:32:40;5.40;;;2.63;;
25581;SDS011;13462;50.764;4.332;2023-06-26T13:35:06;5.65;;;2.10;;
25581;SDS011;13462;50.764;4.332;2023-06-26T13:37:32;3.83;;;2.00;;
25581;SDS011;13462;50.764;4.332;2023-06-26T13:39:59;6.40;;;2.22;;
25581;SDS011;13462;50.764;4.332;2023-06-26T13:42:26;5.05;;;2.33;;
25581;SDS011;13462;50.764;4.332;2023-06-26T13:44:52;6.78;;;2.10;;
25581;SDS011;13462;50.764;4.332;2023-06-26T13:47:17;3.78;;;2.10;;
25581;SDS011;13462;50.764;4.332;2023-06-26T13:49:43;5.90;;;2.50;;
25581;SDS011;13462;50.764;4.332;2023-06-26T13:52:08;7.85;;;2.22;;
25581;SDS011;13462;50.764;4.332;2023-06-26T13:54:35;6.82;;;2.05;;
25581;SDS011;13462;50.764;4.332;2023-06-26T13:57:01;7.35;;;2.50;;
25581;SDS011;13462;50.764;4.332;2023-06-26T13:59:28;5.93;;;1.98;;
25581;SDS011;13462;50.764;4.332;2023-06-26T14:01:54;3.45;;;2.15;;
25581;SDS011;13462;50.764;4.332;2023-06-26T14:04:19;6.65;;;2.60;;
25581;SDS011;13462;50.764;4.332;2023-06-26T14:06:46;5.18;;;2.15;;
25581;SDS011;13462;50.764;4.332;2023-06-26T14:09:11;6.30;;;2.17;;
25581;SDS011;13462;50.764;4.332;2023-06-26T14:11:37;5.13;;;2.25;;
25581;SDS011;13462;50.764;4.332;2023-06-26T14:14:03;5.63;;;2.53;;
25581;SDS011;13462;50.764;4.332;2023-06-26T14:16:28;7.32;;;2.38;;
25581;SDS011;13462;50.764;4.332;2023-06-26T14:18:54;6.18;;;2.28;;
25581;SDS011;13462;50.764;4.332;2023-06-26T14:21:20;3.42;;;1.77;;
25581;SDS011;13462;50.764;4.332;2023-06-26T14:23:46;5.00;;;2.08;;
25581;SDS011;13462;50.764;4.332;2023-06-26T14:26:12;4.90;;;1.88;;
25581;SDS011;13462;50.764;4.332;2023-06-26T14:28:37;5.32;;;2.17;;
25581;SDS011;13462;50.764;4.332;2023-06-26T14:31:04;4.15;;;1.85;;
25581;SDS011;13462;50.764;4.332;2023-06-26T14:33:30;5.15;;;2.15;;
25581;SDS011;13462;50.764;4.332;2023-06-26T14:35:55;3.60;;;2.08;;
25581;SDS011;13462;50.764;4.332;2023-06-26T14:38:21;6.60;;;2.33;;
25581;SDS011;13462;50.764;4.332;2023-06-26T14:40:47;3.75;;;2.03;;
25581;SDS011;13462;50.764;4.332;2023-06-26T14:43:12;7.25;;;1.88;;
25581;SDS011;13462;50.764;4.332;2023-06-26T14:45:38;2.42;;;1.70;;
25581;SDS011;13462;50.764;4.332;2023-06-26T14:48:03;5.20;;;1.80;;
25581;SDS011;13462;50.764;4.332;2023-06-26T14:50:29;4.45;;;1.83;;
25581;SDS011;13462;50.764;4.332;2023-06-26T14:52:55;4.53;;;1.80;;
25581;SDS011;13462;50.764;4.332;2023-06-26T14:55:20;4.32;;;2.30;;
25581;SDS011;13462;50.764;4.332;2023-06-26T14:57:46;4.45;;;2.08;;
25581;SDS011;13462;50.764;4.332;2023-06-26T15:00:12;3.10;;;1.70;;
25581;SDS011;13462;50.764;4.332;2023-06-26T15:02:38;5.65;;;2.03;;
25581;SDS011;13462;50.764;4.332;2023-06-26T15:05:03;2.28;;;1.73;;